sensor_id;sensor_type;location;lat;lon;timestamp;P1;durP1;ratioP1;P2;durP2;ratioP2
23668;SDS011;12011;47.422;15.018;2023-08-12T00:02:07;1.76;;;1.76;;
23668;SDS011;12011;47.422;15.018;2023-08-12T00:04:37;1.64;;;1.64;;
23668;SDS011;12011;47.422;15.018;2023-08-12T00:07:06;1.51;;;1.51;;
23668;SDS011;12011;47.422;15.018;2023-08-12T00:09:36;1.36;;;1.36;;
23668;SDS011;12011;47.422;15.018;2023-08-12T00:12:08;1.59;;;1.59;;
23668;SDS011;12011;47.422;15.018;2023-08-12T00:14:37;1.92;;;1.92;;
23668;SDS011;12011;47.422;15.018;2023-08-12T00:17:07;1.69;;;1.69;;
23668;SDS011;12011;47.422;15.018;2023-08-12T00:19:37;1.81;;;1.81;;
23668;SDS011;12011;47.422;15.018;2023-08-12T00:22:06;1.82;;;1.82;;
23668;SDS011;12011;47.422;15.018;2023-08-12T00:24:36;1.88;;;1.88;;
23668;SDS011;12011;47.422;15.018;2023-08-12T00:27:08;2.06;;;2.06;;
23668;SDS011;12011;47.422;15.018;2023-08-12T00:29:37;1.61;;;1.61;;
23668;SDS011;12011;47.422;15.018;2023-08-12T00:32:08;1.63;;;1.63;;
23668;SDS011;12011;47.422;15.018;2023-08-12T00:34:38;1.70;;;1.70;;
23668;SDS011;12011;47.422;15.018;2023-08-12T00:37:08;1.57;;;1.57;;
23668;SDS011;12011;47.422;15.018;2023-08-12T00:39:38;1.56;;;1.56;;
23668;SDS011;12011;47.422;15.018;2023-08-12T00:42:10;1.71;;;1.71;;
23668;SDS011;12011;47.422;15.018;2023-08-12T00:44:40;1.83;;;1.83;;
23668;SDS011;12011;47.422;15.018;2023-08-12T00:47:09;2.04;;;2.04;;
23668;SDS011;12011;47.422;15.018;2023-08-12T00:49:39;1.72;;;1.72;;
23668;SDS011;12011;47.422;15.018;2023-08-12T00:52:11;1.64;;;1.64;;
23668;SDS011;12011;47.422;15.018;2023-08-12T00:54:41;1.44;;;1.44;;
23668;SDS011;12011;47.422;15.018;2023-08-12T00:57:14;1.49;;;1.49;;
23668;SDS011;12011;47.422;15.018;2023-08-12T00:59:44;1.52;;;1.52;;
23668;SDS011;12011;47.422;15.018;2023-08-12T01:02:14;1.35;;;1.35;;
23668;SDS011;12011;47.422;15.018;2023-08-12T01:04:44;1.45;;;1.45;;
23668;SDS011;12011;47.422;15.018;2023-08-12T01:07:17;1.43;;;1.43;;
23668;SDS011;12011;47.422;15.018;2023-08-12T01:09:47;1.43;;;1.43;;
23668;SDS011;12011;47.422;15.018;2023-08-12T01:12:21;1.48;;;1.48;;
23668;SDS011;12011;47.422;15.018;2023-08-12T01:14:59;1.58;;;1.58;;
23668;SDS011;12011;47.422;15.018;2023-08-12T01:17:36;1.61;;;1.61;;
23668;SDS011;12011;47.422;15.018;2023-08-12T01:20:11;1.52;;;1.52;;
23668;SDS011;12011;47.422;15.018;2023-08-12T01:22:41;1.59;;;1.59;;
23668;SDS011;12011;47.422;15.018;2023-08-12T01:25:19;1.78;;;1.78;;
23668;SDS011;12011;47.422;15.018;2023-08-12T01:27:51;1.64;;;1.64;;
23668;SDS011;12011;47.422;15.018;2023-08-12T01:30:22;1.61;;;1.61;;
23668;SDS011;12011;47.422;15.018;2023-08-12T01:32:54;1.51;;;1.51;;
23668;SDS011;12011;47.422;15.018;2023-08-12T01:35:32;1.40;;;1.40;;
23668;SDS011;12011;47.422;15.018;2023-08-12T01:38:08;1.65;;;1.65;;
23668;SDS011;12011;47.422;15.018;2023-08-12T01:40:42;1.59;;;1.59;;
23668;SDS011;12011;47.422;15.018;2023-08-12T01:43:14;1.50;;;1.50;;
23668;SDS011;12011;47.422;15.018;2023-08-12T01:45:44;1.79;;;1.79;;
23668;SDS011;12011;47.422;15.018;2023-08-12T01:48:13;1.63;;;1.63;;
23668;SDS011;12011;47.422;15.018;2023-08-12T01:50:46;1.57;;;1.57;;
23668;SDS011;12011;47.422;15.018;2023-08-12T01:53:16;1.63;;;1.63;;
23668;SDS011;12011;47.422;15.018;2023-08-12T01:55:51;1.63;;;1.63;;
23668;SDS011;12011;47.422;15.018;2023-08-12T01:58:21;1.49;;;1.49;;
23668;SDS011;12011;47.422;15.018;2023-08-12T02:00:51;1.56;;;1.56;;
23668;SDS011;12011;47.422;15.018;2023-08-12T02:03:21;1.80;;;1.80;;
23668;SDS011;12011;47.422;15.018;2023-08-12T02:05:51;1.62;;;1.62;;
23668;SDS011;12011;47.422;15.018;2023-08-12T02:08:21;1.54;;;1.54;;
23668;SDS011;12011;47.422;15.018;2023-08-12T02:10:55;1.63;;;1.63;;
23668;SDS011;12011;47.422;15.018;2023-08-12T02:13:26;1.64;;;1.64;;
23668;SDS011;12011;47.422;15.018;2023-08-12T02:15:58;1.72;;;1.72;;
23668;SDS011;12011;47.422;15.018;2023-08-12T02:18:28;1.90;;;1.90;;
23668;SDS011;12011;47.422;15.018;2023-08-12T02:21:01;1.73;;;1.73;;
23668;SDS011;12011;47.422;15.018;2023-08-12T02:23:30;1.88;;;1.88;;
23668;SDS011;12011;47.422;15.018;2023-08-12T02:26:02;1.55;;;1.55;;
23668;SDS011;12011;47.422;15.018;2023-08-12T02:28:34;1.53;;;1.53;;
23668;SDS011;12011;47.422;15.018;2023-08-12T02:31:04;1.72;;;1.72;;
23668;SDS011;12011;47.422;15.018;2023-08-12T02:33:34;1.57;;;1.57;;
23668;SDS011;12011;47.422;15.018;2023-08-12T02:36:04;1.87;;;1.87;;
23668;SDS011;12011;47.422;15.018;2023-08-12T02:38:33;1.78;;;1.78;;
23668;SDS011;12011;47.422;15.018;2023-08-12T02:41:07;1.84;;;1.84;;
23668;SDS011;12011;47.422;15.018;2023-08-12T02:43:36;1.90;;;1.90;;
23668;SDS011;12011;47.422;15.018;2023-08-12T02:46:06;1.95;;;1.95;;
23668;SDS011;12011;47.422;15.018;2023-08-12T02:48:35;2.02;;;2.01;;
23668;SDS011;12011;47.422;15.018;2023-08-12T02:51:06;1.88;;;1.88;;
23668;SDS011;12011;47.422;15.018;2023-08-12T02:53:37;1.95;;;1.95;;
23668;SDS011;12011;47.422;15.018;2023-08-12T02:56:09;1.86;;;1.86;;
23668;SDS011;12011;47.422;15.018;2023-08-12T02:58:38;2.05;;;2.05;;
23668;SDS011;12011;47.422;15.018;2023-08-12T03:01:08;1.78;;;1.78;;
23668;SDS011;12011;47.422;15.018;2023-08-12T03:03:37;2.10;;;2.10;;
23668;SDS011;12011;47.422;15.018;2023-08-12T03:06:07;2.07;;;2.07;;
23668;SDS011;12011;47.422;15.018;2023-08-12T03:08:37;2.14;;;2.14;;
23668;SDS011;12011;47.422;15.018;2023-08-12T03:11:10;1.92;;;1.92;;
23668;SDS011;12011;47.422;15.018;2023-08-12T03:13:45;1.69;;;1.69;;
23668;SDS011;12011;47.422;15.018;2023-08-12T03:16:15;1.86;;;1.86;;
23668;SDS011;12011;47.422;15.018;2023-08-12T03:18:46;1.71;;;1.71;;
23668;SDS011;12011;47.422;15.018;2023-08-12T03:21:16;1.89;;;1.89;;
23668;SDS011;12011;47.422;15.018;2023-08-12T03:23:46;1.59;;;1.59;;
23668;SDS011;12011;47.422;15.018;2023-08-12T03:26:18;1.94;;;1.94;;
23668;SDS011;12011;47.422;15.018;2023-08-12T03:28:49;1.95;;;1.95;;
23668;SDS011;12011;47.422;15.018;2023-08-12T03:31:19;1.74;;;1.74;;
23668;SDS011;12011;47.422;15.018;2023-08-12T03:33:49;1.69;;;1.69;;
23668;SDS011;12011;47.422;15.018;2023-08-12T03:36:19;1.78;;;1.78;;
23668;SDS011;12011;47.422;15.018;2023-08-12T03:38:49;2.42;;;2.42;;
23668;SDS011;12011;47.422;15.018;2023-08-12T03:41:26;2.00;;;2.00;;
23668;SDS011;12011;47.422;15.018;2023-08-12T03:43:59;2.08;;;2.08;;
23668;SDS011;12011;47.422;15.018;2023-08-12T03:46:28;1.99;;;1.99;;
23668;SDS011;12011;47.422;15.018;2023-08-12T03:48:58;2.20;;;2.20;;
23668;SDS011;12011;47.422;15.018;2023-08-12T03:51:29;2.07;;;2.07;;
23668;SDS011;12011;47.422;15.018;2023-08-12T03:53:58;1.99;;;1.99;;
23668;SDS011;12011;47.422;15.018;2023-08-12T03:56:31;2.22;;;2.22;;
23668;SDS011;12011;47.422;15.018;2023-08-12T03:59:02;2.11;;;2.11;;
23668;SDS011;12011;47.422;15.018;2023-08-12T04:01:32;1.87;;;1.87;;
23668;SDS011;12011;47.422;15.018;2023-08-12T04:04:01;2.07;;;2.07;;
23668;SDS011;12011;47.422;15.018;2023-08-12T04:06:32;2.16;;;2.16;;
23668;SDS011;12011;47.422;15.018;2023-08-12T04:09:02;1.84;;;1.84;;
23668;SDS011;12011;47.422;15.018;2023-08-12T04:11:35;1.74;;;1.74;;
23668;SDS011;12011;47.422;15.018;2023-08-12T04:14:04;1.75;;;1.75;;
23668;SDS011;12011;47.422;15.018;2023-08-12T04:16:34;1.92;;;1.92;;
23668;SDS011;12011;47.422;15.018;2023-08-12T04:19:04;1.70;;;1.70;;
23668;SDS011;12011;47.422;15.018;2023-08-12T04:21:33;1.72;;;1.72;;
23668;SDS011;12011;47.422;15.018;2023-08-12T04:24:03;1.88;;;1.88;;
23668;SDS011;12011;47.422;15.018;2023-08-12T04:26:37;1.96;;;1.96;;
23668;SDS011;12011;47.422;15.018;2023-08-12T04:29:06;2.60;;;2.60;;
23668;SDS011;12011;47.422;15.018;2023-08-12T04:31:40;2.21;;;2.21;;
23668;SDS011;12011;47.422;15.018;2023-08-12T04:34:11;1.86;;;1.86;;
23668;SDS011;12011;47.422;15.018;2023-08-12T04:36:40;1.97;;;1.97;;
23668;SDS011;12011;47.422;15.018;2023-08-12T04:39:10;1.41;;;1.41;;
23668;SDS011;12011;47.422;15.018;2023-08-12T04:41:45;1.43;;;1.43;;
23668;SDS011;12011;47.422;15.018;2023-08-12T04:44:14;1.90;;;1.90;;
23668;SDS011;12011;47.422;15.018;2023-08-12T04:46:44;1.66;;;1.66;;
23668;SDS011;12011;47.422;15.018;2023-08-12T04:49:17;1.91;;;1.91;;
23668;SDS011;12011;47.422;15.018;2023-08-12T04:51:51;2.62;;;2.62;;
23668;SDS011;12011;47.422;15.018;2023-08-12T04:54:21;2.53;;;2.52;;
23668;SDS011;12011;47.422;15.018;2023-08-12T04:56:53;2.30;;;2.30;;
23668;SDS011;12011;47.422;15.018;2023-08-12T04:59:23;2.64;;;2.64;;
23668;SDS011;12011;47.422;15.018;2023-08-12T05:01:53;2.47;;;2.47;;
23668;SDS011;12011;47.422;15.018;2023-08-12T05:04:23;2.46;;;2.46;;
23668;SDS011;12011;47.422;15.018;2023-08-12T05:06:53;2.53;;;2.53;;
23668;SDS011;12011;47.422;15.018;2023-08-12T05:09:24;2.34;;;2.34;;
23668;SDS011;12011;47.422;15.018;2023-08-12T05:11:56;2.07;;;2.07;;
23668;SDS011;12011;47.422;15.018;2023-08-12T05:14:26;2.08;;;2.08;;
23668;SDS011;12011;47.422;15.018;2023-08-12T05:16:55;1.84;;;1.84;;
23668;SDS011;12011;47.422;15.018;2023-08-12T05:19:25;1.83;;;1.83;;
23668;SDS011;12011;47.422;15.018;2023-08-12T05:21:54;1.81;;;1.81;;
23668;SDS011;12011;47.422;15.018;2023-08-12T05:24:25;2.02;;;2.02;;
23668;SDS011;12011;47.422;15.018;2023-08-12T05:26:57;1.87;;;1.87;;
23668;SDS011;12011;47.422;15.018;2023-08-12T05:29:26;1.81;;;1.81;;
23668;SDS011;12011;47.422;15.018;2023-08-12T05:31:56;1.84;;;1.84;;
23668;SDS011;12011;47.422;15.018;2023-08-12T05:34:25;1.74;;;1.74;;
23668;SDS011;12011;47.422;15.018;2023-08-12T05:36:55;1.49;;;1.49;;
23668;SDS011;12011;47.422;15.018;2023-08-12T05:39:24;1.67;;;1.67;;
23668;SDS011;12011;47.422;15.018;2023-08-12T05:41:57;1.57;;;1.57;;
23668;SDS011;12011;47.422;15.018;2023-08-12T05:44:26;1.66;;;1.66;;
23668;SDS011;12011;47.422;15.018;2023-08-12T05:46:56;1.56;;;1.56;;
23668;SDS011;12011;47.422;15.018;2023-08-12T05:49:25;1.76;;;1.76;;
23668;SDS011;12011;47.422;15.018;2023-08-12T05:51:55;1.72;;;1.72;;
23668;SDS011;12011;47.422;15.018;2023-08-12T05:54:24;1.68;;;1.68;;
23668;SDS011;12011;47.422;15.018;2023-08-12T05:56:57;1.66;;;1.66;;
23668;SDS011;12011;47.422;15.018;2023-08-12T05:59:27;1.72;;;1.72;;
23668;SDS011;12011;47.422;15.018;2023-08-12T06:01:57;1.61;;;1.61;;
23668;SDS011;12011;47.422;15.018;2023-08-12T06:04:26;1.68;;;1.68;;
23668;SDS011;12011;47.422;15.018;2023-08-12T06:06:56;1.55;;;1.55;;
23668;SDS011;12011;47.422;15.018;2023-08-12T06:09:25;1.75;;;1.75;;
23668;SDS011;12011;47.422;15.018;2023-08-12T06:11:57;1.71;;;1.71;;
23668;SDS011;12011;47.422;15.018;2023-08-12T06:14:27;1.67;;;1.67;;
23668;SDS011;12011;47.422;15.018;2023-08-12T06:16:57;1.61;;;1.61;;
23668;SDS011;12011;47.422;15.018;2023-08-12T06:19:27;1.68;;;1.68;;
23668;SDS011;12011;47.422;15.018;2023-08-12T06:21:56;1.66;;;1.66;;
23668;SDS011;12011;47.422;15.018;2023-08-12T06:24:26;1.78;;;1.78;;
23668;SDS011;12011;47.422;15.018;2023-08-12T06:26:58;1.66;;;1.66;;
23668;SDS011;12011;47.422;15.018;2023-08-12T06:29:28;1.67;;;1.67;;
23668;SDS011;12011;47.422;15.018;2023-08-12T06:31:57;1.75;;;1.75;;
23668;SDS011;12011;47.422;15.018;2023-08-12T06:34:29;1.64;;;1.64;;
23668;SDS011;12011;47.422;15.018;2023-08-12T06:36:59;1.69;;;1.69;;
23668;SDS011;12011;47.422;15.018;2023-08-12T06:39:29;1.85;;;1.85;;
23668;SDS011;12011;47.422;15.018;2023-08-12T06:42:01;1.93;;;1.93;;
23668;SDS011;12011;47.422;15.018;2023-08-12T06:44:32;1.88;;;1.88;;
23668;SDS011;12011;47.422;15.018;2023-08-12T06:47:02;1.58;;;1.58;;
23668;SDS011;12011;47.422;15.018;2023-08-12T06:49:31;1.73;;;1.73;;
23668;SDS011;12011;47.422;15.018;2023-08-12T06:52:01;1.84;;;1.84;;
23668;SDS011;12011;47.422;15.018;2023-08-12T06:54:31;1.69;;;1.69;;
23668;SDS011;12011;47.422;15.018;2023-08-12T06:57:03;1.72;;;1.72;;
23668;SDS011;12011;47.422;15.018;2023-08-12T06:59:33;1.70;;;1.70;;
23668;SDS011;12011;47.422;15.018;2023-08-12T07:02:03;1.90;;;1.90;;
23668;SDS011;12011;47.422;15.018;2023-08-12T07:04:32;1.71;;;1.71;;
23668;SDS011;12011;47.422;15.018;2023-08-12T07:07:02;1.71;;;1.71;;
23668;SDS011;12011;47.422;15.018;2023-08-12T07:09:32;1.84;;;1.84;;
23668;SDS011;12011;47.422;15.018;2023-08-12T07:12:04;1.87;;;1.87;;
23668;SDS011;12011;47.422;15.018;2023-08-12T07:14:35;1.57;;;1.57;;
23668;SDS011;12011;47.422;15.018;2023-08-12T07:17:05;1.79;;;1.79;;
23668;SDS011;12011;47.422;15.018;2023-08-12T07:19:34;1.90;;;1.90;;
23668;SDS011;12011;47.422;15.018;2023-08-12T07:22:04;1.81;;;1.81;;
23668;SDS011;12011;47.422;15.018;2023-08-12T07:24:33;1.67;;;1.67;;
23668;SDS011;12011;47.422;15.018;2023-08-12T07:27:05;1.64;;;1.64;;
23668;SDS011;12011;47.422;15.018;2023-08-12T07:29:35;1.90;;;1.90;;
23668;SDS011;12011;47.422;15.018;2023-08-12T07:32:05;1.82;;;1.82;;
23668;SDS011;12011;47.422;15.018;2023-08-12T07:34:34;1.54;;;1.54;;
23668;SDS011;12011;47.422;15.018;2023-08-12T07:37:04;1.56;;;1.56;;
23668;SDS011;12011;47.422;15.018;2023-08-12T07:39:33;1.60;;;1.60;;
23668;SDS011;12011;47.422;15.018;2023-08-12T07:42:05;1.69;;;1.69;;
23668;SDS011;12011;47.422;15.018;2023-08-12T07:44:35;1.56;;;1.56;;
23668;SDS011;12011;47.422;15.018;2023-08-12T07:47:05;1.83;;;1.83;;
23668;SDS011;12011;47.422;15.018;2023-08-12T07:49:34;1.66;;;1.66;;
23668;SDS011;12011;47.422;15.018;2023-08-12T07:52:04;1.65;;;1.65;;
23668;SDS011;12011;47.422;15.018;2023-08-12T07:54:35;1.75;;;1.75;;
23668;SDS011;12011;47.422;15.018;2023-08-12T07:57:07;1.76;;;1.76;;
23668;SDS011;12011;47.422;15.018;2023-08-12T07:59:37;1.74;;;1.74;;
23668;SDS011;12011;47.422;15.018;2023-08-12T08:02:06;1.68;;;1.68;;
23668;SDS011;12011;47.422;15.018;2023-08-12T08:04:36;1.81;;;1.81;;
23668;SDS011;12011;47.422;15.018;2023-08-12T08:07:05;1.55;;;1.55;;
23668;SDS011;12011;47.422;15.018;2023-08-12T08:09:35;1.72;;;1.72;;
23668;SDS011;12011;47.422;15.018;2023-08-12T08:12:07;1.56;;;1.56;;
23668;SDS011;12011;47.422;15.018;2023-08-12T08:14:37;1.72;;;1.72;;
23668;SDS011;12011;47.422;15.018;2023-08-12T08:17:07;1.91;;;1.91;;
23668;SDS011;12011;47.422;15.018;2023-08-12T08:19:36;1.91;;;1.91;;
23668;SDS011;12011;47.422;15.018;2023-08-12T08:22:06;1.75;;;1.75;;
23668;SDS011;12011;47.422;15.018;2023-08-12T08:24:36;1.70;;;1.70;;
23668;SDS011;12011;47.422;15.018;2023-08-12T08:27:08;1.81;;;1.81;;
23668;SDS011;12011;47.422;15.018;2023-08-12T08:29:38;1.77;;;1.77;;
23668;SDS011;12011;47.422;15.018;2023-08-12T08:32:08;2.17;;;2.17;;
23668;SDS011;12011;47.422;15.018;2023-08-12T08:34:37;1.97;;;1.97;;
23668;SDS011;12011;47.422;15.018;2023-08-12T08:37:07;2.16;;;2.15;;
23668;SDS011;12011;47.422;15.018;2023-08-12T08:39:37;2.40;;;2.40;;
23668;SDS011;12011;47.422;15.018;2023-08-12T08:42:09;2.30;;;2.28;;
23668;SDS011;12011;47.422;15.018;2023-08-12T08:44:40;2.24;;;2.21;;
23668;SDS011;12011;47.422;15.018;2023-08-12T08:47:11;2.44;;;2.40;;
23668;SDS011;12011;47.422;15.018;2023-08-12T08:49:48;2.31;;;2.29;;
23668;SDS011;12011;47.422;15.018;2023-08-12T08:52:19;2.20;;;2.18;;
23668;SDS011;12011;47.422;15.018;2023-08-12T08:54:49;2.75;;;2.72;;
23668;SDS011;12011;47.422;15.018;2023-08-12T08:57:21;2.53;;;2.50;;
23668;SDS011;12011;47.422;15.018;2023-08-12T08:59:53;2.68;;;2.64;;
23668;SDS011;12011;47.422;15.018;2023-08-12T09:02:23;2.48;;;2.44;;
23668;SDS011;12011;47.422;15.018;2023-08-12T09:04:54;2.55;;;2.48;;
23668;SDS011;12011;47.422;15.018;2023-08-12T09:07:25;2.48;;;2.42;;
23668;SDS011;12011;47.422;15.018;2023-08-12T09:09:55;2.56;;;2.51;;
23668;SDS011;12011;47.422;15.018;2023-08-12T09:12:32;2.84;;;2.75;;
23668;SDS011;12011;47.422;15.018;2023-08-12T09:15:02;2.25;;;2.19;;
23668;SDS011;12011;47.422;15.018;2023-08-12T09:17:33;2.58;;;2.53;;
23668;SDS011;12011;47.422;15.018;2023-08-12T09:20:02;2.51;;;2.43;;
23668;SDS011;12011;47.422;15.018;2023-08-12T09:22:37;2.72;;;2.63;;
23668;SDS011;12011;47.422;15.018;2023-08-12T09:25:07;2.38;;;2.31;;
23668;SDS011;12011;47.422;15.018;2023-08-12T09:27:41;2.47;;;2.41;;
23668;SDS011;12011;47.422;15.018;2023-08-12T09:30:10;2.44;;;2.37;;
23668;SDS011;12011;47.422;15.018;2023-08-12T09:32:41;1.96;;;1.93;;
23668;SDS011;12011;47.422;15.018;2023-08-12T09:35:15;2.16;;;2.14;;
23668;SDS011;12011;47.422;15.018;2023-08-12T09:37:45;2.29;;;2.25;;
23668;SDS011;12011;47.422;15.018;2023-08-12T09:40:14;2.01;;;1.98;;
23668;SDS011;12011;47.422;15.018;2023-08-12T09:42:47;2.27;;;2.25;;
23668;SDS011;12011;47.422;15.018;2023-08-12T09:45:17;2.03;;;2.02;;
23668;SDS011;12011;47.422;15.018;2023-08-12T09:47:46;2.00;;;1.99;;
23668;SDS011;12011;47.422;15.018;2023-08-12T09:50:16;1.75;;;1.74;;
23668;SDS011;12011;47.422;15.018;2023-08-12T09:52:46;1.82;;;1.82;;
23668;SDS011;12011;47.422;15.018;2023-08-12T09:55:16;1.52;;;1.52;;
23668;SDS011;12011;47.422;15.018;2023-08-12T09:57:51;1.80;;;1.80;;
23668;SDS011;12011;47.422;15.018;2023-08-12T10:00:22;1.72;;;1.72;;
23668;SDS011;12011;47.422;15.018;2023-08-12T10:02:53;1.87;;;1.87;;
23668;SDS011;12011;47.422;15.018;2023-08-12T10:05:24;1.46;;;1.45;;
23668;SDS011;12011;47.422;15.018;2023-08-12T10:07:57;1.72;;;1.72;;
23668;SDS011;12011;47.422;15.018;2023-08-12T10:10:28;1.33;;;1.33;;
23668;SDS011;12011;47.422;15.018;2023-08-12T10:13:04;1.40;;;1.40;;
23668;SDS011;12011;47.422;15.018;2023-08-12T10:15:34;1.38;;;1.38;;
23668;SDS011;12011;47.422;15.018;2023-08-12T10:18:05;1.43;;;1.42;;
23668;SDS011;12011;47.422;15.018;2023-08-12T10:20:35;1.40;;;1.40;;
23668;SDS011;12011;47.422;15.018;2023-08-12T10:23:05;1.79;;;1.79;;
23668;SDS011;12011;47.422;15.018;2023-08-12T10:25:45;1.37;;;1.36;;
23668;SDS011;12011;47.422;15.018;2023-08-12T10:28:21;1.33;;;1.33;;
23668;SDS011;12011;47.422;15.018;2023-08-12T10:30:51;1.77;;;1.77;;
23668;SDS011;12011;47.422;15.018;2023-08-12T10:33:21;1.39;;;1.39;;
23668;SDS011;12011;47.422;15.018;2023-08-12T10:35:51;1.63;;;1.63;;
23668;SDS011;12011;47.422;15.018;2023-08-12T10:38:24;1.68;;;1.67;;
23668;SDS011;12011;47.422;15.018;2023-08-12T10:40:56;1.70;;;1.70;;
23668;SDS011;12011;47.422;15.018;2023-08-12T10:43:51;1.56;;;1.56;;
23668;SDS011;12011;47.422;15.018;2023-08-12T10:46:23;1.64;;;1.64;;
23668;SDS011;12011;47.422;15.018;2023-08-12T10:49:07;1.65;;;1.65;;
23668;SDS011;12011;47.422;15.018;2023-08-12T10:51:44;1.71;;;1.71;;
23668;SDS011;12011;47.422;15.018;2023-08-12T10:54:17;1.82;;;1.82;;
23668;SDS011;12011;47.422;15.018;2023-08-12T10:57:05;1.65;;;1.65;;
23668;SDS011;12011;47.422;15.018;2023-08-12T10:59:56;1.28;;;1.28;;
23668;SDS011;12011;47.422;15.018;2023-08-12T11:02:27;1.43;;;1.43;;
23668;SDS011;12011;47.422;15.018;2023-08-12T11:05:00;1.67;;;1.67;;
23668;SDS011;12011;47.422;15.018;2023-08-12T11:07:33;1.62;;;1.62;;
23668;SDS011;12011;47.422;15.018;2023-08-12T11:10:10;1.61;;;1.61;;
23668;SDS011;12011;47.422;15.018;2023-08-12T11:12:47;1.64;;;1.64;;
23668;SDS011;12011;47.422;15.018;2023-08-12T11:15:32;1.59;;;1.59;;
23668;SDS011;12011;47.422;15.018;2023-08-12T11:18:04;1.61;;;1.61;;
23668;SDS011;12011;47.422;15.018;2023-08-12T11:20:36;1.53;;;1.53;;
23668;SDS011;12011;47.422;15.018;2023-08-12T11:23:07;1.69;;;1.69;;
23668;SDS011;12011;47.422;15.018;2023-08-12T11:25:38;1.73;;;1.73;;
23668;SDS011;12011;47.422;15.018;2023-08-12T11:28:10;1.68;;;1.68;;
23668;SDS011;12011;47.422;15.018;2023-08-12T11:30:43;1.85;;;1.85;;
23668;SDS011;12011;47.422;15.018;2023-08-12T11:33:16;1.66;;;1.66;;
23668;SDS011;12011;47.422;15.018;2023-08-12T11:35:47;1.59;;;1.59;;
23668;SDS011;12011;47.422;15.018;2023-08-12T11:38:16;1.83;;;1.83;;
23668;SDS011;12011;47.422;15.018;2023-08-12T11:40:47;1.96;;;1.96;;
23668;SDS011;12011;47.422;15.018;2023-08-12T11:43:20;1.88;;;1.88;;
23668;SDS011;12011;47.422;15.018;2023-08-12T11:45:53;1.85;;;1.85;;
23668;SDS011;12011;47.422;15.018;2023-08-12T11:48:27;2.01;;;2.01;;
23668;SDS011;12011;47.422;15.018;2023-08-12T11:50:57;1.77;;;1.77;;
23668;SDS011;12011;47.422;15.018;2023-08-12T11:53:26;1.74;;;1.74;;
23668;SDS011;12011;47.422;15.018;2023-08-12T11:55:56;1.90;;;1.90;;
23668;SDS011;12011;47.422;15.018;2023-08-12T11:58:27;1.76;;;1.76;;
23668;SDS011;12011;47.422;15.018;2023-08-12T12:01:07;1.77;;;1.77;;
23668;SDS011;12011;47.422;15.018;2023-08-12T12:03:38;1.77;;;1.77;;
23668;SDS011;12011;47.422;15.018;2023-08-12T12:06:07;1.76;;;1.76;;
23668;SDS011;12011;47.422;15.018;2023-08-12T12:08:38;1.50;;;1.50;;
23668;SDS011;12011;47.422;15.018;2023-08-12T12:11:08;1.84;;;1.84;;
23668;SDS011;12011;47.422;15.018;2023-08-12T12:13:37;1.88;;;1.88;;
23668;SDS011;12011;47.422;15.018;2023-08-12T12:16:12;1.61;;;1.61;;
23668;SDS011;12011;47.422;15.018;2023-08-12T12:18:43;1.67;;;1.67;;
23668;SDS011;12011;47.422;15.018;2023-08-12T12:21:19;1.77;;;1.77;;
23668;SDS011;12011;47.422;15.018;2023-08-12T12:23:52;1.53;;;1.53;;
23668;SDS011;12011;47.422;15.018;2023-08-12T12:26:22;1.78;;;1.78;;
23668;SDS011;12011;47.422;15.018;2023-08-12T12:28:51;1.55;;;1.55;;
23668;SDS011;12011;47.422;15.018;2023-08-12T12:31:24;1.68;;;1.68;;
23668;SDS011;12011;47.422;15.018;2023-08-12T12:33:56;1.73;;;1.73;;
23668;SDS011;12011;47.422;15.018;2023-08-12T12:36:25;1.68;;;1.68;;
23668;SDS011;12011;47.422;15.018;2023-08-12T12:38:55;1.59;;;1.59;;
23668;SDS011;12011;47.422;15.018;2023-08-12T12:41:25;1.72;;;1.72;;
23668;SDS011;12011;47.422;15.018;2023-08-12T12:43:54;1.60;;;1.60;;
23668;SDS011;12011;47.422;15.018;2023-08-12T12:46:26;1.71;;;1.71;;
23668;SDS011;12011;47.422;15.018;2023-08-12T12:48:56;1.64;;;1.64;;
23668;SDS011;12011;47.422;15.018;2023-08-12T12:51:26;1.50;;;1.50;;
23668;SDS011;12011;47.422;15.018;2023-08-12T12:53:55;1.58;;;1.58;;
23668;SDS011;12011;47.422;15.018;2023-08-12T12:56:25;1.70;;;1.70;;
23668;SDS011;12011;47.422;15.018;2023-08-12T12:58:54;1.38;;;1.38;;
23668;SDS011;12011;47.422;15.018;2023-08-12T13:01:27;1.65;;;1.65;;
23668;SDS011;12011;47.422;15.018;2023-08-12T13:03:56;1.49;;;1.49;;
23668;SDS011;12011;47.422;15.018;2023-08-12T13:06:26;1.49;;;1.49;;
23668;SDS011;12011;47.422;15.018;2023-08-12T13:08:55;1.53;;;1.53;;
23668;SDS011;12011;47.422;15.018;2023-08-12T13:11:25;1.42;;;1.42;;
23668;SDS011;12011;47.422;15.018;2023-08-12T13:13:54;1.43;;;1.43;;
23668;SDS011;12011;47.422;15.018;2023-08-12T13:16:27;1.66;;;1.66;;
23668;SDS011;12011;47.422;15.018;2023-08-12T13:18:57;1.62;;;1.62;;
23668;SDS011;12011;47.422;15.018;2023-08-12T13:21:26;1.54;;;1.54;;
23668;SDS011;12011;47.422;15.018;2023-08-12T13:23:57;1.61;;;1.61;;
23668;SDS011;12011;47.422;15.018;2023-08-12T13:26:27;1.84;;;1.84;;
23668;SDS011;12011;47.422;15.018;2023-08-12T13:28:56;1.56;;;1.56;;
23668;SDS011;12011;47.422;15.018;2023-08-12T13:31:28;1.48;;;1.48;;
23668;SDS011;12011;47.422;15.018;2023-08-12T13:33:58;1.45;;;1.45;;
23668;SDS011;12011;47.422;15.018;2023-08-12T13:36:28;1.58;;;1.58;;
23668;SDS011;12011;47.422;15.018;2023-08-12T13:38:58;1.51;;;1.51;;
23668;SDS011;12011;47.422;15.018;2023-08-12T13:41:28;1.46;;;1.46;;
23668;SDS011;12011;47.422;15.018;2023-08-12T13:43:57;1.65;;;1.65;;
23668;SDS011;12011;47.422;15.018;2023-08-12T13:46:29;1.71;;;1.71;;
23668;SDS011;12011;47.422;15.018;2023-08-12T13:48:59;1.83;;;1.83;;
23668;SDS011;12011;47.422;15.018;2023-08-12T13:51:28;1.46;;;1.46;;
23668;SDS011;12011;47.422;15.018;2023-08-12T13:54:00;1.54;;;1.54;;
23668;SDS011;12011;47.422;15.018;2023-08-12T13:56:29;1.55;;;1.55;;
23668;SDS011;12011;47.422;15.018;2023-08-12T13:58:59;1.51;;;1.51;;
23668;SDS011;12011;47.422;15.018;2023-08-12T14:01:31;1.56;;;1.56;;
23668;SDS011;12011;47.422;15.018;2023-08-12T14:04:00;1.46;;;1.46;;
23668;SDS011;12011;47.422;15.018;2023-08-12T14:06:30;1.66;;;1.66;;
23668;SDS011;12011;47.422;15.018;2023-08-12T14:08:59;1.68;;;1.68;;
23668;SDS011;12011;47.422;15.018;2023-08-12T14:11:29;1.73;;;1.73;;
23668;SDS011;12011;47.422;15.018;2023-08-12T14:13:59;1.56;;;1.56;;
23668;SDS011;12011;47.422;15.018;2023-08-12T14:16:32;1.52;;;1.52;;
23668;SDS011;12011;47.422;15.018;2023-08-12T14:19:01;1.67;;;1.67;;
23668;SDS011;12011;47.422;15.018;2023-08-12T14:21:31;1.67;;;1.67;;
23668;SDS011;12011;47.422;15.018;2023-08-12T14:24:01;1.76;;;1.76;;
23668;SDS011;12011;47.422;15.018;2023-08-12T14:26:31;1.83;;;1.83;;
23668;SDS011;12011;47.422;15.018;2023-08-12T14:29:01;1.86;;;1.86;;
23668;SDS011;12011;47.422;15.018;2023-08-12T14:31:33;1.79;;;1.79;;
23668;SDS011;12011;47.422;15.018;2023-08-12T14:34:03;1.68;;;1.68;;
23668;SDS011;12011;47.422;15.018;2023-08-12T14:36:33;1.86;;;1.86;;
23668;SDS011;12011;47.422;15.018;2023-08-12T14:39:03;1.81;;;1.81;;
23668;SDS011;12011;47.422;15.018;2023-08-12T14:41:33;1.74;;;1.74;;
23668;SDS011;12011;47.422;15.018;2023-08-12T14:44:03;1.83;;;1.83;;
23668;SDS011;12011;47.422;15.018;2023-08-12T14:46:35;1.66;;;1.66;;
23668;SDS011;12011;47.422;15.018;2023-08-12T14:49:05;1.92;;;1.92;;
23668;SDS011;12011;47.422;15.018;2023-08-12T14:51:35;1.77;;;1.77;;
23668;SDS011;12011;47.422;15.018;2023-08-12T14:54:04;1.74;;;1.74;;
23668;SDS011;12011;47.422;15.018;2023-08-12T14:56:35;1.66;;;1.66;;